Fog Current Weather (METAR) For Bournemouth Airport

All times on the weather descriptions are local

Observed at 23:20 - (20 mins ago)

Fog

2°C

Shallow , Fog
Clouds:
Wind: 330° at 02 knots
Visibility: 1,500m
QNH: 1023
Dew Point: 2°C
Runway in Use: Likely Runway 26

Sunrise Today: 07:34
Sunset Today: 16:13

Forecast Weather (TAF) For Bournemouth Airport

Issued at 00:00 - (6 days 0 hrs ago)


Runway in Use: Unable to determine, wind is clam

Forecast valid until 00:00 on Sunday

METAR/TAF RAW METAR / TAF

EGHH 232320Z 33002KT 1500 MIFG NSC 02/02 Q1023

Weather Widget

Put weather from any of our airports on your website with our weather widget.

Find Another Search

Airport Search


Please Wait Please Wait - Loading
Close
Close

Login

Username:

Password:

Remember Me:

Remember me on this computer

Forgotten your password? Get a reset password sent to your registered e-mail address

Close

User Private Message

Subject:

Message: